Calahorra, Spain
Current Conditions -  °F | °C
As of 12:00 PM on Thursday 23 Oct 2014 (Local Time) from LELO Reporting Station
Clear Clear  
Wind Chill: 63°   Ceiling: Unl
Heat Index: 63°   Visibility: 6mi
Dew Point: 36°   Wind: 13mph
Humidity: 37%   Direction: 260°W
Pressure: 30.3"   Gusts: NA
Location:  42.3°N, 1.97°W
Report Text: LELO 231000Z 26011KT CAVOK 17/02 Q1026
Loading
Personal Weather Stations






























Interactive Weather Map
Tropical Storm Tracking
New forecast layout! Learn more

10-Day Weather Forecast

Advertisements
Track Severe Weather on mobile